sensor_id;sensor_type;location;lat;lon;timestamp;P1;durP1;ratioP1;P2;durP2;ratioP2
21647;SDS011;10985;54.182;7.890;2023-08-24T00:00:11;7.82;;;2.97;;
21647;SDS011;10985;54.182;7.890;2023-08-24T00:02:37;5.93;;;2.83;;
21647;SDS011;10985;54.182;7.890;2023-08-24T00:05:02;7.32;;;2.78;;
21647;SDS011;10985;54.182;7.890;2023-08-24T00:07:28;9.40;;;2.42;;
21647;SDS011;10985;54.182;7.890;2023-08-24T00:09:54;8.70;;;2.42;;
21647;SDS011;10985;54.182;7.890;2023-08-24T00:12:20;4.63;;;2.70;;
21647;SDS011;10985;54.182;7.890;2023-08-24T00:14:45;5.93;;;2.47;;
21647;SDS011;10985;54.182;7.890;2023-08-24T00:17:10;7.28;;;2.60;;
21647;SDS011;10985;54.182;7.890;2023-08-24T00:19:36;9.77;;;3.30;;
21647;SDS011;10985;54.182;7.890;2023-08-24T00:22:01;9.45;;;2.92;;
21647;SDS011;10985;54.182;7.890;2023-08-24T00:24:27;4.57;;;2.60;;
21647;SDS011;10985;54.182;7.890;2023-08-24T00:26:52;5.85;;;2.42;;
21647;SDS011;10985;54.182;7.890;2023-08-24T00:29:18;5.88;;;3.00;;
21647;SDS011;10985;54.182;7.890;2023-08-24T00:31:43;8.07;;;2.60;;
21647;SDS011;10985;54.182;7.890;2023-08-24T00:34:09;8.55;;;2.72;;
21647;SDS011;10985;54.182;7.890;2023-08-24T00:36:34;7.30;;;2.40;;
21647;SDS011;10985;54.182;7.890;2023-08-24T00:39:00;7.82;;;2.95;;
21647;SDS011;10985;54.182;7.890;2023-08-24T00:41:25;7.38;;;2.40;;
21647;SDS011;10985;54.182;7.890;2023-08-24T00:43:51;8.50;;;2.65;;
21647;SDS011;10985;54.182;7.890;2023-08-24T00:46:16;4.72;;;2.70;;
21647;SDS011;10985;54.182;7.890;2023-08-24T00:48:43;6.47;;;2.60;;
21647;SDS011;10985;54.182;7.890;2023-08-24T00:51:09;8.02;;;2.72;;
21647;SDS011;10985;54.182;7.890;2023-08-24T00:53:34;9.73;;;3.05;;
21647;SDS011;10985;54.182;7.890;2023-08-24T00:56:01;8.23;;;3.05;;
21647;SDS011;10985;54.182;7.890;2023-08-24T00:58:28;6.00;;;2.97;;
21647;SDS011;10985;54.182;7.890;2023-08-24T01:00:55;6.35;;;2.90;;
21647;SDS011;10985;54.182;7.890;2023-08-24T01:03:22;6.45;;;2.95;;
21647;SDS011;10985;54.182;7.890;2023-08-24T01:05:48;7.10;;;3.30;;
21647;SDS011;10985;54.182;7.890;2023-08-24T01:08:14;7.18;;;3.30;;
21647;SDS011;10985;54.182;7.890;2023-08-24T01:10:41;6.93;;;3.00;;
21647;SDS011;10985;54.182;7.890;2023-08-24T01:13:14;11.43;;;3.00;;
21647;SDS011;10985;54.182;7.890;2023-08-24T01:15:58;6.97;;;2.63;;
21647;SDS011;10985;54.182;7.890;2023-08-24T01:18:30;9.63;;;2.97;;
21647;SDS011;10985;54.182;7.890;2023-08-24T01:20:57;10.40;;;3.10;;
21647;SDS011;10985;54.182;7.890;2023-08-24T01:26:11;5.72;;;2.97;;
21647;SDS011;10985;54.182;7.890;2023-08-24T01:28:44;5.68;;;2.78;;
21647;SDS011;10985;54.182;7.890;2023-08-24T01:31:10;9.45;;;2.90;;
21647;SDS011;10985;54.182;7.890;2023-08-24T01:33:36;6.28;;;2.72;;
21647;SDS011;10985;54.182;7.890;2023-08-24T01:36:01;9.05;;;2.67;;
21647;SDS011;10985;54.182;7.890;2023-08-24T01:38:27;7.43;;;2.58;;
21647;SDS011;10985;54.182;7.890;2023-08-24T01:43:42;7.60;;;2.42;;
21647;SDS011;10985;54.182;7.890;2023-08-24T01:46:10;4.63;;;2.70;;
21647;SDS011;10985;54.182;7.890;2023-08-24T01:48:39;7.70;;;2.78;;
21647;SDS011;10985;54.182;7.890;2023-08-24T01:51:05;8.73;;;2.83;;
21647;SDS011;10985;54.182;7.890;2023-08-24T01:53:32;7.90;;;2.95;;
21647;SDS011;10985;54.182;7.890;2023-08-24T01:55:58;6.20;;;2.97;;
21647;SDS011;10985;54.182;7.890;2023-08-24T01:58:23;8.32;;;3.30;;
21647;SDS011;10985;54.182;7.890;2023-08-24T02:00:49;11.35;;;3.25;;
21647;SDS011;10985;54.182;7.890;2023-08-24T02:03:15;5.05;;;2.83;;
21647;SDS011;10985;54.182;7.890;2023-08-24T02:05:40;6.88;;;3.00;;
21647;SDS011;10985;54.182;7.890;2023-08-24T02:08:06;7.38;;;3.20;;
21647;SDS011;10985;54.182;7.890;2023-08-24T02:10:31;6.13;;;3.10;;
21647;SDS011;10985;54.182;7.890;2023-08-24T02:12:57;4.80;;;3.08;;
21647;SDS011;10985;54.182;7.890;2023-08-24T02:15:22;6.13;;;2.80;;
21647;SDS011;10985;54.182;7.890;2023-08-24T02:17:48;6.13;;;3.65;;
21647;SDS011;10985;54.182;7.890;2023-08-24T02:20:14;8.07;;;2.85;;
21647;SDS011;10985;54.182;7.890;2023-08-24T02:22:39;7.28;;;2.90;;
21647;SDS011;10985;54.182;7.890;2023-08-24T02:25:05;8.10;;;3.30;;
21647;SDS011;10985;54.182;7.890;2023-08-24T02:27:31;7.20;;;2.67;;
21647;SDS011;10985;54.182;7.890;2023-08-24T02:29:57;8.02;;;3.17;;
21647;SDS011;10985;54.182;7.890;2023-08-24T02:32:23;5.25;;;3.25;;
21647;SDS011;10985;54.182;7.890;2023-08-24T02:34:48;8.50;;;3.15;;
21647;SDS011;10985;54.182;7.890;2023-08-24T02:37:14;8.27;;;2.45;;
21647;SDS011;10985;54.182;7.890;2023-08-24T02:39:40;8.82;;;3.20;;
21647;SDS011;10985;54.182;7.890;2023-08-24T02:42:05;8.13;;;3.00;;
21647;SDS011;10985;54.182;7.890;2023-08-24T02:44:31;5.07;;;2.63;;
21647;SDS011;10985;54.182;7.890;2023-08-24T02:46:56;6.55;;;2.60;;
21647;SDS011;10985;54.182;7.890;2023-08-24T02:49:22;6.20;;;3.00;;
21647;SDS011;10985;54.182;7.890;2023-08-24T02:51:48;10.20;;;3.30;;
21647;SDS011;10985;54.182;7.890;2023-08-24T02:54:13;4.93;;;2.97;;
21647;SDS011;10985;54.182;7.890;2023-08-24T02:56:39;6.50;;;3.35;;
21647;SDS011;10985;54.182;7.890;2023-08-24T02:59:04;5.47;;;3.13;;
21647;SDS011;10985;54.182;7.890;2023-08-24T03:01:30;5.95;;;3.67;;
21647;SDS011;10985;54.182;7.890;2023-08-24T03:03:55;6.15;;;2.80;;
21647;SDS011;10985;54.182;7.890;2023-08-24T03:06:21;15.00;;;3.53;;
21647;SDS011;10985;54.182;7.890;2023-08-24T03:08:49;10.43;;;3.92;;
21647;SDS011;10985;54.182;7.890;2023-08-24T03:11:14;11.38;;;3.15;;
21647;SDS011;10985;54.182;7.890;2023-08-24T03:13:40;8.35;;;3.35;;
21647;SDS011;10985;54.182;7.890;2023-08-24T03:16:05;12.48;;;3.88;;
21647;SDS011;10985;54.182;7.890;2023-08-24T03:18:32;8.75;;;3.88;;
21647;SDS011;10985;54.182;7.890;2023-08-24T03:20:57;8.73;;;3.65;;
21647;SDS011;10985;54.182;7.890;2023-08-24T03:23:23;8.32;;;3.78;;
21647;SDS011;10985;54.182;7.890;2023-08-24T03:25:49;6.80;;;3.20;;
21647;SDS011;10985;54.182;7.890;2023-08-24T03:28:14;5.65;;;3.63;;
21647;SDS011;10985;54.182;7.890;2023-08-24T03:30:45;6.88;;;3.65;;
21647;SDS011;10985;54.182;7.890;2023-08-24T03:33:11;6.45;;;3.33;;
21647;SDS011;10985;54.182;7.890;2023-08-24T03:35:37;7.03;;;3.13;;
21647;SDS011;10985;54.182;7.890;2023-08-24T03:38:02;8.25;;;4.20;;
21647;SDS011;10985;54.182;7.890;2023-08-24T03:40:29;7.53;;;3.40;;
21647;SDS011;10985;54.182;7.890;2023-08-24T03:42:55;8.82;;;3.70;;
21647;SDS011;10985;54.182;7.890;2023-08-24T03:45:21;10.13;;;4.45;;
21647;SDS011;10985;54.182;7.890;2023-08-24T03:47:46;11.57;;;3.97;;
21647;SDS011;10985;54.182;7.890;2023-08-24T03:50:12;7.18;;;3.53;;
21647;SDS011;10985;54.182;7.890;2023-08-24T03:52:37;8.75;;;3.50;;
21647;SDS011;10985;54.182;7.890;2023-08-24T03:55:04;9.50;;;3.42;;
21647;SDS011;10985;54.182;7.890;2023-08-24T03:57:31;6.82;;;3.10;;
21647;SDS011;10985;54.182;7.890;2023-08-24T03:59:56;6.07;;;3.38;;
21647;SDS011;10985;54.182;7.890;2023-08-24T04:02:22;5.25;;;3.38;;
21647;SDS011;10985;54.182;7.890;2023-08-24T04:04:48;6.53;;;3.58;;
21647;SDS011;10985;54.182;7.890;2023-08-24T04:07:14;6.00;;;3.35;;
21647;SDS011;10985;54.182;7.890;2023-08-24T04:09:40;6.00;;;3.70;;
21647;SDS011;10985;54.182;7.890;2023-08-24T04:12:05;5.80;;;3.22;;
21647;SDS011;10985;54.182;7.890;2023-08-24T04:14:31;8.27;;;3.90;;
21647;SDS011;10985;54.182;7.890;2023-08-24T04:16:56;9.40;;;3.40;;
21647;SDS011;10985;54.182;7.890;2023-08-24T04:19:22;6.95;;;3.47;;
21647;SDS011;10985;54.182;7.890;2023-08-24T04:21:47;8.43;;;3.67;;
21647;SDS011;10985;54.182;7.890;2023-08-24T04:24:13;10.75;;;3.17;;
21647;SDS011;10985;54.182;7.890;2023-08-24T04:26:38;7.45;;;3.53;;
21647;SDS011;10985;54.182;7.890;2023-08-24T04:29:04;6.22;;;3.30;;
21647;SDS011;10985;54.182;7.890;2023-08-24T04:31:29;8.80;;;5.18;;
21647;SDS011;10985;54.182;7.890;2023-08-24T04:33:55;8.02;;;3.50;;
21647;SDS011;10985;54.182;7.890;2023-08-24T04:36:20;7.18;;;3.80;;
21647;SDS011;10985;54.182;7.890;2023-08-24T04:38:46;9.07;;;3.65;;
21647;SDS011;10985;54.182;7.890;2023-08-24T04:41:11;10.50;;;3.88;;
21647;SDS011;10985;54.182;7.890;2023-08-24T04:43:37;8.20;;;4.38;;
21647;SDS011;10985;54.182;7.890;2023-08-24T04:46:03;10.07;;;3.90;;
21647;SDS011;10985;54.182;7.890;2023-08-24T04:48:28;10.23;;;4.00;;
21647;SDS011;10985;54.182;7.890;2023-08-24T04:50:59;9.23;;;3.95;;
21647;SDS011;10985;54.182;7.890;2023-08-24T04:53:25;8.35;;;3.80;;
21647;SDS011;10985;54.182;7.890;2023-08-24T04:55:51;9.02;;;4.18;;
21647;SDS011;10985;54.182;7.890;2023-08-24T04:58:17;11.05;;;4.20;;
21647;SDS011;10985;54.182;7.890;2023-08-24T05:00:43;7.90;;;4.25;;
21647;SDS011;10985;54.182;7.890;2023-08-24T05:03:09;8.05;;;4.70;;
21647;SDS011;10985;54.182;7.890;2023-08-24T05:05:35;9.27;;;3.97;;
21647;SDS011;10985;54.182;7.890;2023-08-24T05:08:02;9.05;;;4.03;;
21647;SDS011;10985;54.182;7.890;2023-08-24T05:10:31;6.18;;;4.57;;
21647;SDS011;10985;54.182;7.890;2023-08-24T05:12:58;7.53;;;4.32;;
21647;SDS011;10985;54.182;7.890;2023-08-24T05:15:24;11.52;;;6.57;;
21647;SDS011;10985;54.182;7.890;2023-08-24T05:17:50;9.85;;;5.35;;
21647;SDS011;10985;54.182;7.890;2023-08-24T05:20:19;13.65;;;5.47;;
21647;SDS011;10985;54.182;7.890;2023-08-24T05:22:45;7.47;;;4.95;;
21647;SDS011;10985;54.182;7.890;2023-08-24T05:25:11;12.23;;;4.88;;
21647;SDS011;10985;54.182;7.890;2023-08-24T05:27:37;11.25;;;5.53;;
21647;SDS011;10985;54.182;7.890;2023-08-24T05:30:02;11.15;;;4.75;;
21647;SDS011;10985;54.182;7.890;2023-08-24T05:32:29;7.95;;;4.88;;
21647;SDS011;10985;54.182;7.890;2023-08-24T05:34:54;11.70;;;4.63;;
21647;SDS011;10985;54.182;7.890;2023-08-24T05:37:20;12.02;;;7.40;;
21647;SDS011;10985;54.182;7.890;2023-08-24T05:39:45;11.52;;;4.75;;
21647;SDS011;10985;54.182;7.890;2023-08-24T05:42:11;8.65;;;5.60;;
21647;SDS011;10985;54.182;7.890;2023-08-24T05:44:36;9.80;;;4.80;;
21647;SDS011;10985;54.182;7.890;2023-08-24T05:47:03;9.77;;;5.35;;
21647;SDS011;10985;54.182;7.890;2023-08-24T05:49:28;8.90;;;4.40;;
21647;SDS011;10985;54.182;7.890;2023-08-24T05:51:54;11.13;;;5.10;;
21647;SDS011;10985;54.182;7.890;2023-08-24T05:54:20;10.40;;;4.40;;
21647;SDS011;10985;54.182;7.890;2023-08-24T05:56:46;7.47;;;4.35;;
21647;SDS011;10985;54.182;7.890;2023-08-24T05:59:12;12.27;;;5.57;;
21647;SDS011;10985;54.182;7.890;2023-08-24T06:01:38;6.25;;;3.38;;
21647;SDS011;10985;54.182;7.890;2023-08-24T06:04:07;9.27;;;4.13;;
21647;SDS011;10985;54.182;7.890;2023-08-24T06:06:34;15.15;;;4.47;;
21647;SDS011;10985;54.182;7.890;2023-08-24T06:09:00;11.18;;;5.20;;
21647;SDS011;10985;54.182;7.890;2023-08-24T06:11:25;9.20;;;4.80;;
21647;SDS011;10985;54.182;7.890;2023-08-24T06:13:51;15.10;;;5.55;;
21647;SDS011;10985;54.182;7.890;2023-08-24T06:16:18;10.07;;;4.30;;
21647;SDS011;10985;54.182;7.890;2023-08-24T06:18:44;9.32;;;4.50;;
21647;SDS011;10985;54.182;7.890;2023-08-24T06:21:10;16.55;;;4.18;;
21647;SDS011;10985;54.182;7.890;2023-08-24T06:23:36;11.18;;;4.75;;
21647;SDS011;10985;54.182;7.890;2023-08-24T06:26:03;9.35;;;4.80;;
21647;SDS011;10985;54.182;7.890;2023-08-24T06:28:29;12.75;;;4.40;;
21647;SDS011;10985;54.182;7.890;2023-08-24T06:30:55;8.02;;;3.28;;
21647;SDS011;10985;54.182;7.890;2023-08-24T06:33:20;9.38;;;3.65;;
21647;SDS011;10985;54.182;7.890;2023-08-24T06:35:46;12.10;;;6.13;;
21647;SDS011;10985;54.182;7.890;2023-08-24T06:38:11;10.02;;;4.45;;
21647;SDS011;10985;54.182;7.890;2023-08-24T06:40:38;8.95;;;3.72;;
21647;SDS011;10985;54.182;7.890;2023-08-24T06:43:04;12.38;;;4.18;;
21647;SDS011;10985;54.182;7.890;2023-08-24T06:45:30;14.68;;;4.97;;
21647;SDS011;10985;54.182;7.890;2023-08-24T06:47:56;9.32;;;4.10;;
21647;SDS011;10985;54.182;7.890;2023-08-24T06:50:21;5.07;;;3.25;;
21647;SDS011;10985;54.182;7.890;2023-08-24T06:52:47;8.65;;;2.90;;
21647;SDS011;10985;54.182;7.890;2023-08-24T06:55:12;8.50;;;3.67;;
21647;SDS011;10985;54.182;7.890;2023-08-24T06:57:38;8.52;;;3.60;;
21647;SDS011;10985;54.182;7.890;2023-08-24T07:00:04;9.80;;;3.17;;
21647;SDS011;10985;54.182;7.890;2023-08-24T07:02:34;9.50;;;4.07;;
21647;SDS011;10985;54.182;7.890;2023-08-24T07:05:02;8.48;;;3.03;;
21647;SDS011;10985;54.182;7.890;2023-08-24T07:07:30;10.75;;;3.65;;
21647;SDS011;10985;54.182;7.890;2023-08-24T07:09:56;8.45;;;3.28;;
21647;SDS011;10985;54.182;7.890;2023-08-24T07:12:21;7.72;;;3.05;;
21647;SDS011;10985;54.182;7.890;2023-08-24T07:14:47;14.73;;;5.40;;
21647;SDS011;10985;54.182;7.890;2023-08-24T07:17:12;10.13;;;5.15;;
21647;SDS011;10985;54.182;7.890;2023-08-24T07:19:38;7.75;;;3.97;;
21647;SDS011;10985;54.182;7.890;2023-08-24T07:22:03;7.90;;;2.70;;
21647;SDS011;10985;54.182;7.890;2023-08-24T07:24:29;8.18;;;3.17;;
21647;SDS011;10985;54.182;7.890;2023-08-24T07:26:55;9.32;;;3.33;;
21647;SDS011;10985;54.182;7.890;2023-08-24T07:29:21;7.35;;;3.00;;
21647;SDS011;10985;54.182;7.890;2023-08-24T07:31:47;7.25;;;2.72;;
21647;SDS011;10985;54.182;7.890;2023-08-24T07:34:12;6.00;;;2.60;;
21647;SDS011;10985;54.182;7.890;2023-08-24T07:36:38;7.25;;;2.65;;
21647;SDS011;10985;54.182;7.890;2023-08-24T07:39:04;3.45;;;2.90;;
21647;SDS011;10985;54.182;7.890;2023-08-24T07:41:29;10.10;;;4.10;;
21647;SDS011;10985;54.182;7.890;2023-08-24T07:43:55;5.97;;;2.75;;
21647;SDS011;10985;54.182;7.890;2023-08-24T07:46:20;5.32;;;2.67;;
21647;SDS011;10985;54.182;7.890;2023-08-24T07:48:46;6.00;;;2.58;;
21647;SDS011;10985;54.182;7.890;2023-08-24T07:51:12;9.98;;;3.20;;
21647;SDS011;10985;54.182;7.890;2023-08-24T07:53:37;4.57;;;2.50;;
21647;SDS011;10985;54.182;7.890;2023-08-24T07:56:03;3.47;;;2.22;;
21647;SDS011;10985;54.182;7.890;2023-08-24T07:58:28;8.75;;;2.58;;
21647;SDS011;10985;54.182;7.890;2023-08-24T08:00:56;6.50;;;2.50;;
21647;SDS011;10985;54.182;7.890;2023-08-24T08:03:22;5.72;;;2.30;;
21647;SDS011;10985;54.182;7.890;2023-08-24T08:05:47;7.72;;;2.67;;
21647;SDS011;10985;54.182;7.890;2023-08-24T08:08:13;7.82;;;2.92;;
21647;SDS011;10985;54.182;7.890;2023-08-24T08:10:39;14.73;;;2.95;;
21647;SDS011;10985;54.182;7.890;2023-08-24T08:13:05;7.43;;;2.97;;
21647;SDS011;10985;54.182;7.890;2023-08-24T08:15:31;6.07;;;2.25;;
21647;SDS011;10985;54.182;7.890;2023-08-24T08:17:57;5.43;;;1.98;;
21647;SDS011;10985;54.182;7.890;2023-08-24T08:20:22;7.93;;;2.05;;
21647;SDS011;10985;54.182;7.890;2023-08-24T08:22:48;7.80;;;2.58;;
21647;SDS011;10985;54.182;7.890;2023-08-24T08:25:13;5.05;;;2.10;;
21647;SDS011;10985;54.182;7.890;2023-08-24T08:27:42;6.70;;;2.55;;
21647;SDS011;10985;54.182;7.890;2023-08-24T08:30:08;8.20;;;2.40;;
21647;SDS011;10985;54.182;7.890;2023-08-24T08:32:34;9.93;;;2.13;;
21647;SDS011;10985;54.182;7.890;2023-08-24T08:34:59;8.10;;;2.40;;
21647;SDS011;10985;54.182;7.890;2023-08-24T08:37:26;11.25;;;2.38;;
21647;SDS011;10985;54.182;7.890;2023-08-24T08:39:52;9.07;;;2.25;;
21647;SDS011;10985;54.182;7.890;2023-08-24T08:42:17;12.50;;;3.00;;
21647;SDS011;10985;54.182;7.890;2023-08-24T08:44:44;7.18;;;3.13;;
21647;SDS011;10985;54.182;7.890;2023-08-24T08:47:11;5.38;;;1.98;;
21647;SDS011;10985;54.182;7.890;2023-08-24T08:49:39;6.45;;;2.38;;
21647;SDS011;10985;54.182;7.890;2023-08-24T08:52:08;6.70;;;2.03;;
21647;SDS011;10985;54.182;7.890;2023-08-24T08:54:34;5.28;;;2.20;;
21647;SDS011;10985;54.182;7.890;2023-08-24T08:57:00;6.07;;;2.22;;
21647;SDS011;10985;54.182;7.890;2023-08-24T08:59:27;6.43;;;2.05;;
21647;SDS011;10985;54.182;7.890;2023-08-24T09:02:00;5.47;;;2.15;;
21647;SDS011;10985;54.182;7.890;2023-08-24T09:04:27;6.05;;;1.88;;
21647;SDS011;10985;54.182;7.890;2023-08-24T09:06:54;6.05;;;1.98;;
21647;SDS011;10985;54.182;7.890;2023-08-24T09:09:21;6.85;;;1.90;;
21647;SDS011;10985;54.182;7.890;2023-08-24T09:11:47;7.97;;;2.40;;
21647;SDS011;10985;54.182;7.890;2023-08-24T09:14:13;8.52;;;1.80;;
21647;SDS011;10985;54.182;7.890;2023-08-24T09:16:40;9.07;;;3.88;;
21647;SDS011;10985;54.182;7.890;2023-08-24T09:19:06;4.20;;;1.83;;
21647;SDS011;10985;54.182;7.890;2023-08-24T09:21:34;7.05;;;1.92;;
21647;SDS011;10985;54.182;7.890;2023-08-24T09:24:02;6.15;;;1.80;;
21647;SDS011;10985;54.182;7.890;2023-08-24T09:26:33;5.60;;;1.73;;
21647;SDS011;10985;54.182;7.890;2023-08-24T09:29:00;4.47;;;1.90;;
21647;SDS011;10985;54.182;7.890;2023-08-24T09:31:36;8.98;;;2.10;;
21647;SDS011;10985;54.182;7.890;2023-08-24T09:34:02;6.90;;;2.17;;
21647;SDS011;10985;54.182;7.890;2023-08-24T09:36:31;9.35;;;2.38;;
21647;SDS011;10985;54.182;7.890;2023-08-24T09:38:58;6.43;;;2.63;;
21647;SDS011;10985;54.182;7.890;2023-08-24T09:41:24;5.90;;;2.00;;
21647;SDS011;10985;54.182;7.890;2023-08-24T09:44:07;4.00;;;1.77;;
21647;SDS011;10985;54.182;7.890;2023-08-24T09:46:37;4.53;;;1.35;;
21647;SDS011;10985;54.182;7.890;2023-08-24T09:49:04;3.50;;;1.63;;
21647;SDS011;10985;54.182;7.890;2023-08-24T09:51:31;6.82;;;2.80;;
21647;SDS011;10985;54.182;7.890;2023-08-24T09:53:58;5.28;;;1.95;;
21647;SDS011;10985;54.182;7.890;2023-08-24T09:56:27;6.95;;;2.15;;
21647;SDS011;10985;54.182;7.890;2023-08-24T09:58:54;4.75;;;1.73;;
21647;SDS011;10985;54.182;7.890;2023-08-24T10:01:21;5.55;;;1.80;;
21647;SDS011;10985;54.182;7.890;2023-08-24T10:03:48;6.20;;;1.75;;
21647;SDS011;10985;54.182;7.890;2023-08-24T10:06:17;5.47;;;1.58;;
21647;SDS011;10985;54.182;7.890;2023-08-24T10:08:47;4.65;;;1.70;;
21647;SDS011;10985;54.182;7.890;2023-08-24T10:11:19;5.82;;;1.73;;
21647;SDS011;10985;54.182;7.890;2023-08-24T10:16:49;5.25;;;1.60;;
21647;SDS011;10985;54.182;7.890;2023-08-24T10:19:15;4.20;;;1.42;;
21647;SDS011;10985;54.182;7.890;2023-08-24T10:21:42;3.53;;;1.38;;
21647;SDS011;10985;54.182;7.890;2023-08-24T10:24:08;4.25;;;1.60;;
21647;SDS011;10985;54.182;7.890;2023-08-24T10:26:36;3.22;;;1.33;;
21647;SDS011;10985;54.182;7.890;2023-08-24T10:29:04;5.35;;;1.73;;
21647;SDS011;10985;54.182;7.890;2023-08-24T10:31:31;7.20;;;1.20;;
21647;SDS011;10985;54.182;7.890;2023-08-24T10:33:58;3.90;;;1.23;;
21647;SDS011;10985;54.182;7.890;2023-08-24T10:36:25;2.25;;;1.10;;
21647;SDS011;10985;54.182;7.890;2023-08-24T10:38:51;3.60;;;1.10;;
21647;SDS011;10985;54.182;7.890;2023-08-24T10:41:25;3.33;;;0.90;;
21647;SDS011;10985;54.182;7.890;2023-08-24T10:43:51;3.78;;;1.20;;
21647;SDS011;10985;54.182;7.890;2023-08-24T10:46:28;3.60;;;1.35;;
21647;SDS011;10985;54.182;7.890;2023-08-24T10:48:59;3.33;;;1.27;;
21647;SDS011;10985;54.182;7.890;2023-08-24T10:51:28;3.55;;;1.38;;
21647;SDS011;10985;54.182;7.890;2023-08-24T10:53:56;2.95;;;1.25;;
21647;SDS011;10985;54.182;7.890;2023-08-24T10:56:29;4.85;;;1.40;;
21647;SDS011;10985;54.182;7.890;2023-08-24T10:59:14;3.53;;;1.25;;
21647;SDS011;10985;54.182;7.890;2023-08-24T11:01:41;8.13;;;1.58;;
21647;SDS011;10985;54.182;7.890;2023-08-24T11:04:10;4.25;;;1.25;;
21647;SDS011;10985;54.182;7.890;2023-08-24T11:06:50;3.22;;;1.45;;
21647;SDS011;10985;54.182;7.890;2023-08-24T11:09:24;5.07;;;2.03;;
21647;SDS011;10985;54.182;7.890;2023-08-24T11:11:57;7.13;;;1.98;;
21647;SDS011;10985;54.182;7.890;2023-08-24T11:14:28;4.00;;;1.92;;
21647;SDS011;10985;54.182;7.890;2023-08-24T11:16:57;3.28;;;1.50;;
21647;SDS011;10985;54.182;7.890;2023-08-24T11:19:24;9.35;;;5.22;;
21647;SDS011;10985;54.182;7.890;2023-08-24T11:21:50;9.90;;;2.97;;
21647;SDS011;10985;54.182;7.890;2023-08-24T11:24:17;7.57;;;2.70;;
21647;SDS011;10985;54.182;7.890;2023-08-24T11:26:44;6.95;;;2.38;;
21647;SDS011;10985;54.182;7.890;2023-08-24T11:29:12;6.15;;;2.08;;
21647;SDS011;10985;54.182;7.890;2023-08-24T11:31:38;6.45;;;2.15;;
21647;SDS011;10985;54.182;7.890;2023-08-24T11:34:04;5.10;;;2.42;;
21647;SDS011;10985;54.182;7.890;2023-08-24T11:36:30;6.90;;;2.50;;
21647;SDS011;10985;54.182;7.890;2023-08-24T11:38:59;4.70;;;1.90;;
21647;SDS011;10985;54.182;7.890;2023-08-24T11:41:25;5.63;;;1.90;;
21647;SDS011;10985;54.182;7.890;2023-08-24T11:43:58;4.20;;;2.28;;
21647;SDS011;10985;54.182;7.890;2023-08-24T11:46:24;5.05;;;3.38;;
21647;SDS011;10985;54.182;7.890;2023-08-24T11:48:52;4.05;;;1.92;;
21647;SDS011;10985;54.182;7.890;2023-08-24T11:51:18;5.05;;;1.75;;
21647;SDS011;10985;54.182;7.890;2023-08-24T11:53:44;6.00;;;2.63;;
21647;SDS011;10985;54.182;7.890;2023-08-24T11:56:13;9.75;;;2.75;;
21647;SDS011;10985;54.182;7.890;2023-08-24T11:58:41;6.10;;;2.55;;
21647;SDS011;10985;54.182;7.890;2023-08-24T12:01:08;8.75;;;3.50;;
21647;SDS011;10985;54.182;7.890;2023-08-24T12:03:35;7.97;;;2.70;;
21647;SDS011;10985;54.182;7.890;2023-08-24T12:06:01;6.93;;;2.38;;
21647;SDS011;10985;54.182;7.890;2023-08-24T12:08:37;3.83;;;1.95;;
21647;SDS011;10985;54.182;7.890;2023-08-24T12:11:03;6.03;;;3.33;;
21647;SDS011;10985;54.182;7.890;2023-08-24T12:13:35;6.90;;;2.05;;
21647;SDS011;10985;54.182;7.890;2023-08-24T12:16:01;10.35;;;4.45;;
21647;SDS011;10985;54.182;7.890;2023-08-24T12:18:28;4.30;;;1.90;;
21647;SDS011;10985;54.182;7.890;2023-08-24T12:20:53;5.43;;;1.85;;
21647;SDS011;10985;54.182;7.890;2023-08-24T12:23:19;3.55;;;1.63;;
21647;SDS011;10985;54.182;7.890;2023-08-24T12:25:44;4.45;;;1.95;;
21647;SDS011;10985;54.182;7.890;2023-08-24T12:28:14;3.15;;;1.38;;
21647;SDS011;10985;54.182;7.890;2023-08-24T12:30:51;7.38;;;2.40;;
21647;SDS011;10985;54.182;7.890;2023-08-24T12:33:27;4.03;;;1.70;;
21647;SDS011;10985;54.182;7.890;2023-08-24T12:35:54;11.73;;;2.63;;
21647;SDS011;10985;54.182;7.890;2023-08-24T12:38:21;4.38;;;1.85;;
21647;SDS011;10985;54.182;7.890;2023-08-24T12:40:47;4.25;;;1.80;;
21647;SDS011;10985;54.182;7.890;2023-08-24T12:43:12;12.95;;;8.90;;
21647;SDS011;10985;54.182;7.890;2023-08-24T12:45:39;7.22;;;3.60;;
21647;SDS011;10985;54.182;7.890;2023-08-24T12:48:04;7.40;;;3.60;;
21647;SDS011;10985;54.182;7.890;2023-08-24T12:50:38;7.95;;;3.30;;
21647;SDS011;10985;54.182;7.890;2023-08-24T12:53:04;7.15;;;2.22;;
21647;SDS011;10985;54.182;7.890;2023-08-24T12:55:31;6.90;;;2.50;;
21647;SDS011;10985;54.182;7.890;2023-08-24T12:57:58;8.60;;;3.42;;
21647;SDS011;10985;54.182;7.890;2023-08-24T13:00:24;5.78;;;2.30;;
21647;SDS011;10985;54.182;7.890;2023-08-24T13:02:49;6.50;;;2.10;;
21647;SDS011;10985;54.182;7.890;2023-08-24T13:05:15;6.40;;;2.88;;
21647;SDS011;10985;54.182;7.890;2023-08-24T13:07:41;8.75;;;2.55;;
21647;SDS011;10985;54.182;7.890;2023-08-24T13:10:06;4.60;;;2.70;;
21647;SDS011;10985;54.182;7.890;2023-08-24T13:12:34;7.57;;;3.50;;
21647;SDS011;10985;54.182;7.890;2023-08-24T13:15:00;7.57;;;4.15;;
21647;SDS011;10985;54.182;7.890;2023-08-24T13:17:27;3.33;;;2.30;;
21647;SDS011;10985;54.182;7.890;2023-08-24T13:19:53;6.78;;;2.08;;
21647;SDS011;10985;54.182;7.890;2023-08-24T13:22:18;6.45;;;2.58;;
21647;SDS011;10985;54.182;7.890;2023-08-24T13:24:44;4.60;;;2.47;;
21647;SDS011;10985;54.182;7.890;2023-08-24T13:27:10;7.63;;;3.58;;
21647;SDS011;10985;54.182;7.890;2023-08-24T13:29:36;8.20;;;2.90;;
21647;SDS011;10985;54.182;7.890;2023-08-24T13:32:02;8.63;;;3.05;;
21647;SDS011;10985;54.182;7.890;2023-08-24T13:34:28;9.50;;;2.60;;
21647;SDS011;10985;54.182;7.890;2023-08-24T13:36:53;7.78;;;3.10;;
21647;SDS011;10985;54.182;7.890;2023-08-24T13:39:19;13.45;;;3.63;;
21647;SDS011;10985;54.182;7.890;2023-08-24T13:41:44;10.70;;;3.85;;
21647;SDS011;10985;54.182;7.890;2023-08-24T13:44:10;8.15;;;4.20;;
21647;SDS011;10985;54.182;7.890;2023-08-24T13:46:35;9.07;;;4.57;;
21647;SDS011;10985;54.182;7.890;2023-08-24T13:49:01;11.02;;;4.22;;
21647;SDS011;10985;54.182;7.890;2023-08-24T13:51:27;7.40;;;3.90;;
21647;SDS011;10985;54.182;7.890;2023-08-24T13:53:53;13.50;;;3.88;;
21647;SDS011;10985;54.182;7.890;2023-08-24T13:56:19;8.75;;;3.97;;
21647;SDS011;10985;54.182;7.890;2023-08-24T13:58:45;7.30;;;3.65;;
21647;SDS011;10985;54.182;7.890;2023-08-24T14:01:11;12.68;;;3.70;;
21647;SDS011;10985;54.182;7.890;2023-08-24T14:03:37;6.57;;;3.50;;
21647;SDS011;10985;54.182;7.890;2023-08-24T14:06:05;9.60;;;4.07;;
21647;SDS011;10985;54.182;7.890;2023-08-24T14:08:30;10.65;;;3.92;;
21647;SDS011;10985;54.182;7.890;2023-08-24T14:10:56;11.68;;;5.18;;
21647;SDS011;10985;54.182;7.890;2023-08-24T14:13:22;14.20;;;6.10;;
21647;SDS011;10985;54.182;7.890;2023-08-24T14:15:49;8.82;;;3.70;;
21647;SDS011;10985;54.182;7.890;2023-08-24T14:18:15;10.60;;;4.18;;
21647;SDS011;10985;54.182;7.890;2023-08-24T14:20:41;10.07;;;3.58;;
21647;SDS011;10985;54.182;7.890;2023-08-24T14:23:08;12.45;;;4.10;;
21647;SDS011;10985;54.182;7.890;2023-08-24T14:25:33;9.23;;;5.10;;
21647;SDS011;10985;54.182;7.890;2023-08-24T14:27:59;9.73;;;5.05;;
21647;SDS011;10985;54.182;7.890;2023-08-24T14:30:24;10.32;;;3.70;;
21647;SDS011;10985;54.182;7.890;2023-08-24T14:32:50;10.30;;;4.25;;
21647;SDS011;10985;54.182;7.890;2023-08-24T14:35:15;12.55;;;4.30;;
21647;SDS011;10985;54.182;7.890;2023-08-24T14:37:41;11.05;;;4.55;;
21647;SDS011;10985;54.182;7.890;2023-08-24T14:40:07;12.40;;;4.13;;
21647;SDS011;10985;54.182;7.890;2023-08-24T14:42:32;12.88;;;4.53;;
21647;SDS011;10985;54.182;7.890;2023-08-24T14:44:58;15.73;;;5.32;;
21647;SDS011;10985;54.182;7.890;2023-08-24T14:47:24;16.33;;;4.97;;
21647;SDS011;10985;54.182;7.890;2023-08-24T14:49:49;15.75;;;5.07;;